Time;durP1;ratioP1;P1;durP2;ratioP2;P2;SDS_P1;SDS_P2;PMS_P1;PMS_P2;Temp;Humidity;BMP_temperature;BMP_pressure;BME280_temperature;BME280_humidity;BME280_pressure;Samples;Min_cycle;Max_cycle;Signal;HPM_P1;HPM_P2
2021/12/02 00:02:07;;;;;;;8.75;1.67;;;19.10;61.30;;;;;;4488438;31;20175;-72
2021/12/02 00:04:36;;;;;;;5.65;1.50;;;19.00;61.40;;;;;;4490516;31;20172;-72
2021/12/02 00:07:04;;;;;;;5.60;1.27;;;19.00;61.30;;;;;;4488513;31;20625;-72
2021/12/02 00:09:31;;;;;;;6.25;1.10;;;19.00;61.30;;;;;;4481968;31;20139;-72
2021/12/02 00:11:57;;;;;;;5.70;1.35;;;19.00;61.40;;;;;;4484312;31;20137;-72
2021/12/02 00:14:26;;;;;;;5.82;1.38;;;19.00;61.40;;;;;;4482350;31;20143;-71
2021/12/02 00:22:11;;;;;;;4.40;1.33;;;18.90;61.40;;;;;;4481708;31;20154;-72
2021/12/02 00:24:40;;;;;;;3.95;1.50;;;18.90;61.40;;;;;;4480640;32;20140;-72
2021/12/02 00:27:08;;;;;;;5.45;1.25;;;18.90;61.50;;;;;;4489025;32;20160;-72
2021/12/02 00:29:36;;;;;;;4.13;1.00;;;18.90;61.50;;;;;;4483773;32;20124;-72
2021/12/02 00:32:06;;;;;;;4.55;1.17;;;18.90;61.50;;;;;;4487033;32;20133;-71
2021/12/02 00:34:33;;;;;;;3.13;1.10;;;18.80;61.40;;;;;;4481199;32;20139;-72
2021/12/02 00:37:01;;;;;;;3.58;1.25;;;18.80;61.40;;;;;;4485304;32;20128;-72
2021/12/02 00:39:29;;;;;;;2.65;0.90;;;18.80;61.50;;;;;;4483101;31;20172;-72
2021/12/02 00:41:56;;;;;;;2.78;0.95;;;18.80;61.50;;;;;;4481585;31;20626;-72
2021/12/02 00:44:22;;;;;;;4.55;1.40;;;18.80;61.50;;;;;;4484237;31;20330;-72
2021/12/02 00:46:50;;;;;;;2.75;1.00;;;18.80;61.60;;;;;;4490916;31;20112;-72
2021/12/02 00:49:17;;;;;;;3.55;0.88;;;18.70;61.50;;;;;;4498316;31;20385;-72
2021/12/02 00:51:55;;;;;;;3.78;1.00;;;18.70;61.50;;;;;;4487858;31;20210;-74
2021/12/02 00:54:23;;;;;;;3.00;1.20;;;18.70;61.50;;;;;;4488139;31;20124;-71
2021/12/02 00:56:51;;;;;;;4.22;1.00;;;18.70;61.60;;;;;;4490438;31;20143;-71
2021/12/02 00:59:17;;;;;;;2.60;0.95;;;18.70;61.50;;;;;;4498012;31;20175;-70
2021/12/02 01:01:46;;;;;;;4.72;0.93;;;18.70;61.60;;;;;;4482299;31;20176;-68
2021/12/02 01:04:16;;;;;;;2.67;0.82;;;18.70;61.70;;;;;;4481579;31;20144;-71
2021/12/02 01:06:42;;;;;;;4.50;1.05;;;18.70;61.70;;;;;;4483693;32;20137;-71
2021/12/02 01:09:11;;;;;;;4.28;1.10;;;18.70;61.80;;;;;;4484885;31;20703;-71
2021/12/02 01:11:38;;;;;;;4.72;1.13;;;18.70;61.70;;;;;;4497499;31;20175;-70
2021/12/02 01:14:04;;;;;;;2.75;0.80;;;18.70;61.80;;;;;;4496266;31;20131;-70
2021/12/02 01:16:31;;;;;;;4.07;1.02;;;18.70;61.70;;;;;;4495595;31;20124;-70
2021/12/02 01:18:57;;;;;;;3.17;0.70;;;18.70;61.80;;;;;;4496546;31;20143;-69
2021/12/02 01:21:26;;;;;;;2.75;0.90;;;18.70;61.80;;;;;;4489843;31;20341;-69
2021/12/02 01:23:57;;;;;;;7.38;1.10;;;18.70;61.80;;;;;;4480883;31;20497;-70
2021/12/02 01:26:24;;;;;;;3.85;0.95;;;18.70;61.80;;;;;;4495469;31;20160;-70
2021/12/02 01:28:51;;;;;;;2.22;0.80;;;18.70;61.90;;;;;;4479838;31;20513;-70
2021/12/02 01:31:17;;;;;;;3.30;1.13;;;18.70;61.90;;;;;;4491804;31;20542;-70
2021/12/02 01:33:45;;;;;;;3.33;1.00;;;18.70;61.90;;;;;;4491443;31;20161;-71
2021/12/02 01:36:13;;;;;;;4.82;1.10;;;18.70;61.90;;;;;;4494860;31;20152;-71
2021/12/02 01:38:40;;;;;;;3.03;1.08;;;18.60;61.90;;;;;;4492204;31;20135;-71
2021/12/02 01:41:07;;;;;;;2.70;0.77;;;18.60;61.90;;;;;;4492780;31;20222;-71
2021/12/02 01:43:50;;;;;;;2.80;0.82;;;18.60;61.90;;;;;;4490346;31;20132;-70
2021/12/02 01:46:20;;;;;;;3.50;0.80;;;18.60;61.90;;;;;;4486270;31;20132;-71
2021/12/02 01:49:00;;;;;;;2.85;0.90;;;18.60;61.90;;;;;;4491487;31;20217;-71
2021/12/02 01:51:27;;;;;;;3.83;0.80;;;18.60;61.90;;;;;;4492286;31;20287;-70
2021/12/02 01:54:05;;;;;;;2.83;1.17;;;18.60;61.90;;;;;;4496329;31;20176;-70
2021/12/02 01:56:43;;;;;;;3.72;1.05;;;18.60;61.90;;;;;;4487180;31;20140;-70
2021/12/02 01:59:22;;;;;;;2.97;0.63;;;18.50;61.90;;;;;;4493904;31;20209;-70
2021/12/02 02:01:55;;;;;;;2.63;0.75;;;18.50;61.90;;;;;;4491524;31;20486;-70
2021/12/02 02:04:23;;;;;;;2.22;0.80;;;18.50;61.90;;;;;;4493533;31;20152;-69
2021/12/02 02:06:56;;;;;;;3.72;0.98;;;18.50;62.00;;;;;;4494298;31;20574;-69
2021/12/02 02:09:25;;;;;;;2.67;0.80;;;18.50;62.00;;;;;;4497142;31;20140;-69
2021/12/02 02:11:51;;;;;;;4.03;0.90;;;18.50;62.00;;;;;;4496717;31;20124;-69
2021/12/02 02:14:17;;;;;;;4.68;1.10;;;18.50;62.00;;;;;;4497932;31;20128;-71
2021/12/02 02:16:44;;;;;;;2.78;0.85;;;18.50;61.90;;;;;;4495487;31;20146;-71
2021/12/02 02:19:12;;;;;;;2.17;0.70;;;18.50;62.00;;;;;;4498394;31;20190;-71
2021/12/02 02:21:38;;;;;;;4.03;0.80;;;18.50;62.00;;;;;;4495877;31;20334;-72
2021/12/02 02:24:10;;;;;;;2.60;0.80;;;18.50;62.10;;;;;;4498090;31;20572;-71
2021/12/02 02:26:36;;;;;;;2.38;0.80;;;18.50;62.20;;;;;;4497171;31;20155;-72
2021/12/02 02:29:09;;;;;;;2.20;0.60;;;18.40;62.20;;;;;;4496580;31;20147;-72
2021/12/02 02:31:38;;;;;;;2.35;0.68;;;18.40;62.20;;;;;;4497853;31;20129;-71
2021/12/02 02:34:04;;;;;;;2.92;0.77;;;18.40;62.20;;;;;;4481818;31;20151;-71
2021/12/02 02:36:33;;;;;;;3.28;1.02;;;18.40;62.20;;;;;;4497724;31;20132;-71
2021/12/02 02:39:02;;;;;;;1.95;0.50;;;18.40;62.20;;;;;;4496107;31;20154;-72
2021/12/02 02:41:37;;;;;;;2.08;0.60;;;18.40;62.20;;;;;;4497451;31;20139;-72
2021/12/02 02:44:05;;;;;;;2.35;0.80;;;18.40;62.30;;;;;;4497877;31;20085;-71
2021/12/02 02:46:33;;;;;;;1.85;0.52;;;18.30;62.20;;;;;;4495661;31;20132;-71
2021/12/02 02:49:02;;;;;;;3.22;0.93;;;18.30;62.20;;;;;;4498150;31;20224;-72
2021/12/02 02:51:30;;;;;;;1.58;0.77;;;18.30;62.20;;;;;;4495414;31;20534;-71
2021/12/02 02:54:02;;;;;;;3.40;0.90;;;18.30;62.20;;;;;;4497717;31;20148;-71
2021/12/02 02:56:31;;;;;;;2.65;0.70;;;18.30;62.30;;;;;;4496682;31;20143;-71
2021/12/02 03:02:01;;;;;;;3.50;0.63;;;18.30;62.20;;;;;;4496899;31;20279;-71
2021/12/02 03:07:18;;;;;;;3.13;0.65;;;18.30;62.20;;;;;;4497068;31;20129;-71
2021/12/02 03:16:36;;;;;;;1.65;0.52;;;18.30;62.20;;;;;;4497362;31;20137;-71
2021/12/02 03:17:35;;;;;;;2.30;0.55;;;18.20;62.20;;;;;;4495020;31;20140;-71
2021/12/02 03:20:02;;;;;;;1.92;0.65;;;18.20;62.20;;;;;;4496836;31;20128;-71
2021/12/02 03:22:29;;;;;;;2.38;0.65;;;18.20;63.00;;;;;;4496942;31;20210;-71
2021/12/02 03:24:55;;;;;;;2.17;0.60;;;18.20;62.10;;;;;;4495243;31;20139;-71
2021/12/02 03:27:21;;;;;;;2.08;0.70;;;18.20;62.20;;;;;;4483316;31;20194;-71
2021/12/02 03:29:47;;;;;;;2.15;0.60;;;18.20;62.20;;;;;;4494644;31;20117;-71
2021/12/02 03:32:13;;;;;;;2.03;0.60;;;18.20;62.10;;;;;;4482942;31;20137;-71
2021/12/02 03:34:39;;;;;;;2.45;0.50;;;18.20;62.10;;;;;;4495104;31;20163;-71
2021/12/02 03:37:06;;;;;;;2.28;0.60;;;18.20;63.00;;;;;;4496719;31;20155;-71
2021/12/02 03:39:32;;;;;;;2.03;0.60;;;18.20;62.10;;;;;;4496491;31;20139;-71
2021/12/02 03:41:58;;;;;;;1.85;0.50;;;18.20;62.10;;;;;;4495077;31;20439;-71
2021/12/02 03:44:25;;;;;;;1.77;0.70;;;18.20;62.10;;;;;;4497183;31;20144;-71
2021/12/02 03:46:52;;;;;;;2.00;0.50;;;18.20;62.10;;;;;;4480370;31;20120;-71
2021/12/02 03:49:18;;;;;;;2.35;0.52;;;18.20;62.00;;;;;;4496969;31;20140;-72
2021/12/02 03:51:44;;;;;;;1.35;0.60;;;18.10;62.00;;;;;;4494678;31;20504;-72
2021/12/02 03:54:10;;;;;;;0.95;0.40;;;18.10;62.00;;;;;;4496893;31;20550;-72
2021/12/02 03:56:36;;;;;;;2.42;0.65;;;18.10;62.00;;;;;;4495988;31;20282;-72
2021/12/02 03:59:03;;;;;;;1.50;0.80;;;18.20;62.00;;;;;;4495194;31;20136;-72
2021/12/02 04:01:29;;;;;;;1.67;0.50;;;18.10;62.00;;;;;;4496903;31;20129;-72
2021/12/02 04:03:55;;;;;;;2.20;0.57;;;18.10;61.90;;;;;;4494175;31;20109;-72
2021/12/02 04:06:21;;;;;;;2.15;0.52;;;18.10;61.90;;;;;;4497185;31;20117;-73
2021/12/02 04:09:05;;;;;;;2.30;0.70;;;18.10;61.90;;;;;;4494677;31;20605;-72
2021/12/02 04:11:38;;;;;;;2.05;0.50;;;18.10;61.90;;;;;;4496248;31;20262;-72
2021/12/02 04:16:35;;;;;;;1.63;0.47;;;18.10;61.90;;;;;;4494491;31;20148;-72
2021/12/02 04:19:02;;;;;;;1.20;0.40;;;18.10;61.90;;;;;;4496619;31;20159;-72
2021/12/02 04:21:29;;;;;;;1.77;0.63;;;18.10;61.90;;;;;;4494462;31;20108;-72
2021/12/02 04:23:55;;;;;;;2.05;0.63;;;18.10;61.90;;;;;;4496439;31;20278;-72
2021/12/02 04:26:21;;;;;;;1.35;0.30;;;18.10;61.90;;;;;;4495097;31;20124;-72
2021/12/02 04:28:47;;;;;;;1.70;0.80;;;18.10;61.90;;;;;;4495438;32;20140;-72
2021/12/02 04:31:12;;;;;;;1.85;0.55;;;18.00;61.80;;;;;;4496411;32;20085;-71
2021/12/02 04:33:38;;;;;;;2.28;0.50;;;18.00;61.80;;;;;;4494406;32;20124;-72
2021/12/02 04:36:06;;;;;;;2.10;0.50;;;18.00;62.40;;;;;;4482236;32;20855;-72
2021/12/02 04:38:32;;;;;;;1.38;0.40;;;18.00;61.80;;;;;;4494279;32;20129;-72
2021/12/02 04:40:58;;;;;;;1.23;0.50;;;18.00;61.80;;;;;;4496262;32;20132;-72
2021/12/02 04:43:24;;;;;;;1.58;0.35;;;18.00;61.80;;;;;;4495028;32;20138;-72
2021/12/02 04:45:51;;;;;;;1.88;0.47;;;18.00;61.80;;;;;;4495449;32;20723;-72
2021/12/02 04:48:18;;;;;;;1.02;0.50;;;18.00;61.80;;;;;;4496425;32;20089;-71
2021/12/02 04:50:44;;;;;;;2.85;0.65;;;17.90;61.80;;;;;;4494444;32;20213;-72
2021/12/02 04:53:11;;;;;;;1.17;0.35;;;17.90;61.70;;;;;;4496470;32;20109;-72
2021/12/02 04:55:38;;;;;;;2.28;0.40;;;17.90;61.70;;;;;;4494038;32;20120;-72
2021/12/02 04:58:04;;;;;;;0.70;0.32;;;17.90;61.70;;;;;;4496079;32;20501;-72
2021/12/02 05:00:30;;;;;;;0.88;0.38;;;17.90;61.70;;;;;;4494785;32;20131;-72
2021/12/02 05:02:57;;;;;;;0.82;0.50;;;17.90;61.80;;;;;;4495197;32;20176;-71
2021/12/02 05:05:23;;;;;;;1.33;0.40;;;17.90;61.80;;;;;;4496070;32;20152;-72
2021/12/02 05:07:53;;;;;;;1.42;0.40;;;17.90;61.70;;;;;;4493959;32;20490;-72
2021/12/02 05:10:20;;;;;;;1.45;0.43;;;17.90;61.80;;;;;;4496263;32;20219;-72
2021/12/02 05:12:47;;;;;;;1.02;0.20;;;17.90;61.80;;;;;;4493909;32;20239;-72
2021/12/02 05:15:13;;;;;;;1.02;0.30;;;17.90;61.80;;;;;;4496365;32;20140;-72
2021/12/02 05:17:38;;;;;;;1.63;0.30;;;17.80;61.80;;;;;;4493477;32;20125;-72
2021/12/02 05:20:06;;;;;;;1.65;0.38;;;17.80;61.70;;;;;;4495171;32;20147;-72
2021/12/02 05:22:32;;;;;;;2.10;0.35;;;17.80;61.70;;;;;;4495990;32;20150;-72
2021/12/02 05:25:05;;;;;;;1.60;0.32;;;17.80;61.80;;;;;;4494302;31;20143;-71
2021/12/02 05:27:31;;;;;;;0.88;0.30;;;17.80;61.70;;;;;;4499104;31;20139;-72
2021/12/02 05:29:57;;;;;;;1.13;0.35;;;17.80;61.80;;;;;;4496416;31;20120;-71
2021/12/02 05:32:23;;;;;;;1.45;0.30;;;17.80;61.70;;;;;;4498841;31;20537;-72
2021/12/02 05:34:49;;;;;;;1.05;0.32;;;17.80;61.70;;;;;;4497803;31;20615;-72
2021/12/02 05:37:16;;;;;;;1.80;0.30;;;17.80;61.70;;;;;;4497964;31;20127;-72
2021/12/02 05:39:43;;;;;;;1.02;0.30;;;17.80;61.70;;;;;;4498787;31;20442;-72
2021/12/02 05:42:10;;;;;;;1.80;0.47;;;17.80;61.70;;;;;;4496099;31;20152;-72
2021/12/02 05:44:36;;;;;;;1.13;0.45;;;17.80;61.80;;;;;;4498830;31;20201;-71
2021/12/02 05:47:03;;;;;;;0.88;0.30;;;17.70;61.70;;;;;;4496014;31;20146;-71
2021/12/02 05:49:30;;;;;;;1.00;0.20;;;17.80;61.80;;;;;;4497672;31;20124;-71
2021/12/02 05:51:56;;;;;;;1.38;0.40;;;17.80;61.70;;;;;;4497041;31;20220;-72
2021/12/02 05:54:21;;;;;;;1.45;0.40;;;17.70;61.70;;;;;;4487944;31;20132;-72
2021/12/02 05:56:47;;;;;;;1.45;0.40;;;17.70;61.70;;;;;;4487405;31;20124;-72
2021/12/02 05:59:13;;;;;;;1.73;0.32;;;17.70;61.70;;;;;;4495714;31;20309;-73
2021/12/02 06:01:42;;;;;;;0.50;0.40;;;17.70;61.70;;;;;;4483595;31;20176;-72
2021/12/02 06:04:09;;;;;;;1.02;0.30;;;17.70;61.70;;;;;;4496197;31;20486;-72
2021/12/02 06:06:36;;;;;;;1.15;0.30;;;17.70;61.70;;;;;;4497833;31;20140;-72
2021/12/02 06:09:02;;;;;;;0.88;0.20;;;17.70;61.60;;;;;;4496005;31;20224;-72
2021/12/02 06:11:28;;;;;;;1.67;0.47;;;17.70;61.60;;;;;;4497208;31;20318;-72
2021/12/02 06:13:56;;;;;;;1.20;0.40;;;17.70;61.70;;;;;;4497155;31;20092;-71
2021/12/02 06:16:22;;;;;;;1.17;0.30;;;17.60;61.70;;;;;;4495534;31;20125;-72
2021/12/02 06:18:48;;;;;;;0.68;0.22;;;17.60;61.60;;;;;;4497739;31;20140;-72
2021/12/02 06:21:14;;;;;;;0.47;0.25;;;17.60;61.60;;;;;;4495453;31;20347;-72
2021/12/02 06:23:41;;;;;;;1.02;0.43;;;17.60;61.60;;;;;;4497104;31;20136;-72
2021/12/02 06:26:08;;;;;;;1.15;0.40;;;17.60;61.50;;;;;;4493680;31;20140;-72
2021/12/02 06:28:35;;;;;;;0.57;0.20;;;17.60;61.60;;;;;;4497056;31;20679;-72
2021/12/02 06:31:02;;;;;;;1.02;0.30;;;17.60;61.50;;;;;;4497336;31;20085;-78
2021/12/02 06:33:33;;;;;;;0.82;0.30;;;17.60;61.50;;;;;;4496354;31;20833;-68
2021/12/02 06:35:59;;;;;;;1.02;0.30;;;17.60;62.30;;;;;;4497634;31;20151;-68
2021/12/02 06:38:27;;;;;;;0.88;0.25;;;17.50;60.90;;;;;;4494898;31;20493;-69
2021/12/02 06:40:53;;;;;;;1.38;0.50;;;17.50;60.60;;;;;;4498079;31;20203;-66
2021/12/02 06:43:19;;;;;;;3.13;0.60;;;17.50;59.90;;;;;;4481769;31;20299;-70
2021/12/02 06:45:45;;;;;;;1.42;0.45;;;17.50;59.80;;;;;;4497277;31;20139;-71
2021/12/02 06:48:12;;;;;;;0.73;0.30;;;17.50;60.10;;;;;;4497219;31;20217;-70
2021/12/02 06:50:39;;;;;;;4.88;0.45;;;17.50;60.30;;;;;;4495841;31;20144;-70
2021/12/02 06:53:06;;;;;;;1.40;0.40;;;17.40;61.20;;;;;;4497339;31;20160;-73
2021/12/02 06:55:32;;;;;;;1.90;0.60;;;17.40;60.50;;;;;;4495279;31;20140;-71
2021/12/02 06:57:58;;;;;;;2.13;0.63;;;17.40;60.60;;;;;;4497535;31;20147;-71
2021/12/02 07:00:24;;;;;;;7.45;0.50;;;17.40;60.80;;;;;;4481380;31;20141;-69
2021/12/02 07:02:54;;;;;;;1.25;0.40;;;17.40;60.90;;;;;;4496796;31;20147;-74
2021/12/02 07:05:20;;;;;;;2.00;0.60;;;17.40;61.10;;;;;;4496877;31;20266;-71
2021/12/02 07:07:46;;;;;;;2.70;0.50;;;17.40;61.10;;;;;;4494997;31;20136;-72
2021/12/02 07:10:17;;;;;;;1.80;0.43;;;17.40;61.40;;;;;;4497234;31;20259;-69
2021/12/02 07:12:47;;;;;;;5.15;0.55;;;17.40;61.40;;;;;;4495348;31;20556;-68
2021/12/02 07:15:27;;;;;;;4.03;0.90;;;17.40;61.40;;;;;;4497039;31;20147;-68
2021/12/02 07:17:57;;;;;;;5.55;0.35;;;17.40;61.50;;;;;;4496435;31;20201;-68
2021/12/02 07:20:24;;;;;;;2.30;0.60;;;17.40;61.50;;;;;;4495793;31;20113;-69
2021/12/02 07:22:50;;;;;;;2.90;0.47;;;17.40;61.70;;;;;;4497146;31;20191;-68
2021/12/02 07:25:16;;;;;;;3.00;0.70;;;17.40;61.60;;;;;;4494842;31;20112;-68
2021/12/02 07:27:42;;;;;;;5.07;0.65;;;17.40;61.70;;;;;;4496970;31;20604;-66
2021/12/02 07:30:09;;;;;;;4.00;0.70;;;17.30;61.70;;;;;;4480708;31;20108;-69
2021/12/02 07:32:39;;;;;;;3.47;0.30;;;17.40;61.80;;;;;;4482699;31;20144;-68
2021/12/02 07:35:15;;;;;;;3.13;0.50;;;17.40;61.80;;;;;;4496428;31;20144;-69
2021/12/02 07:37:47;;;;;;;8.32;0.50;;;17.30;61.60;;;;;;4495160;31;20116;-71
2021/12/02 07:40:15;;;;;;;5.43;0.82;;;17.30;60.50;;;;;;4496930;31;20120;-69
2021/12/02 07:42:41;;;;;;;6.93;0.50;;;17.20;59.10;;;;;;4480627;31;20132;-71
2021/12/02 07:45:08;;;;;;;5.07;0.30;;;17.20;58.80;;;;;;4496886;31;20136;-71
2021/12/02 07:47:37;;;;;;;1.70;0.50;;;17.20;58.60;;;;;;4495300;31;20125;-71
2021/12/02 07:50:05;;;;;;;2.20;0.45;;;17.20;58.80;;;;;;4496099;31;20132;-70
2021/12/02 07:52:34;;;;;;;3.67;0.40;;;17.20;58.90;;;;;;4496229;31;20091;-70
2021/12/02 07:55:05;;;;;;;10.63;0.73;;;17.10;59.00;;;;;;4494783;31;20135;-71
2021/12/02 07:57:33;;;;;;;4.45;0.57;;;17.10;59.70;;;;;;4496555;31;20137;-70
2021/12/02 08:00:00;;;;;;;3.45;0.73;;;17.10;59.20;;;;;;4494559;31;20262;-71
2021/12/02 08:02:32;;;;;;;0.80;0.40;;;17.10;59.20;;;;;;4482544;31;20214;-71
2021/12/02 08:04:58;;;;;;;2.92;0.63;;;17.10;59.40;;;;;;4495710;31;20120;-70
2021/12/02 08:07:24;;;;;;;1.20;0.35;;;17.10;59.40;;;;;;4495216;31;20565;-70
2021/12/02 08:09:50;;;;;;;1.83;0.40;;;17.10;59.50;;;;;;4496729;31;20129;-70
2021/12/02 08:12:16;;;;;;;1.98;0.45;;;17.10;59.60;;;;;;4494524;31;20159;-71
2021/12/02 08:14:42;;;;;;;3.17;0.40;;;17.10;59.70;;;;;;4482442;31;20726;-71
2021/12/02 08:17:08;;;;;;;4.07;0.30;;;17.10;59.80;;;;;;4494224;31;20125;-70
2021/12/02 08:19:34;;;;;;;2.13;0.52;;;17.00;59.80;;;;;;4496605;31;20124;-71
2021/12/02 08:22:00;;;;;;;1.15;0.30;;;17.10;60.00;;;;;;4495316;31;20109;-70
2021/12/02 08:24:34;;;;;;;5.88;0.50;;;17.10;60.00;;;;;;4481734;31;20191;-71
2021/12/02 08:26:59;;;;;;;1.88;0.32;;;17.00;60.00;;;;;;4496587;31;20254;-70
2021/12/02 08:29:25;;;;;;;3.65;0.70;;;17.00;60.10;;;;;;4494122;32;20132;-70
2021/12/02 08:31:51;;;;;;;4.18;0.50;;;17.00;60.20;;;;;;4482417;32;20644;-71
2021/12/02 08:34:18;;;;;;;1.85;0.55;;;17.00;60.20;;;;;;4493953;32;20129;-70
2021/12/02 08:36:49;;;;;;;3.08;0.40;;;17.00;60.40;;;;;;4496349;32;20148;-70
2021/12/02 08:39:23;;;;;;;2.83;0.57;;;17.00;60.50;;;;;;4495151;32;20150;-71
2021/12/02 08:41:51;;;;;;;2.28;0.50;;;17.00;60.50;;;;;;4494768;32;20132;-70
2021/12/02 08:44:20;;;;;;;1.48;0.32;;;17.00;60.50;;;;;;4496332;32;20136;-70
2021/12/02 08:46:49;;;;;;;0.93;0.40;;;17.00;60.60;;;;;;4480200;32;20540;-70
2021/12/02 08:49:16;;;;;;;2.70;0.30;;;17.00;60.60;;;;;;4496506;32;20148;-70
2021/12/02 08:51:44;;;;;;;1.00;0.30;;;17.00;60.60;;;;;;4494596;32;20132;-70
2021/12/02 08:54:11;;;;;;;2.45;0.32;;;17.00;60.70;;;;;;4495964;32;20128;-70
2021/12/02 08:56:37;;;;;;;1.33;0.30;;;17.00;60.70;;;;;;4495621;32;20378;-69
2021/12/02 08:59:03;;;;;;;1.70;0.40;;;17.00;60.80;;;;;;4494437;31;20125;-70
2021/12/02 09:01:29;;;;;;;1.13;0.30;;;17.00;60.90;;;;;;4498434;31;20120;-70
2021/12/02 09:03:58;;;;;;;2.97;0.30;;;17.00;60.90;;;;;;4497220;31;20459;-70
2021/12/02 09:06:23;;;;;;;3.08;0.40;;;17.00;60.90;;;;;;4499290;31;20133;-70
2021/12/02 09:08:53;;;;;;;1.77;0.38;;;17.00;61.00;;;;;;4497402;31;20129;-71
2021/12/02 09:11:19;;;;;;;0.82;0.30;;;16.90;61.00;;;;;;4498714;31;20151;-71
2021/12/02 09:13:45;;;;;;;2.63;0.40;;;17.00;61.00;;;;;;4498755;31;20589;-70
2021/12/02 09:16:12;;;;;;;0.80;0.30;;;17.00;61.10;;;;;;4483271;31;20124;-71
2021/12/02 09:18:38;;;;;;;2.15;0.35;;;17.00;61.10;;;;;;4498746;31;20128;-71
2021/12/02 09:21:05;;;;;;;1.55;0.40;;;17.00;61.10;;;;;;4482743;31;20176;-72
2021/12/02 09:23:31;;;;;;;0.85;0.25;;;16.90;61.10;;;;;;4498921;31;20125;-71
2021/12/02 09:25:57;;;;;;;1.23;0.50;;;16.90;61.10;;;;;;4497271;31;20164;-71
2021/12/02 09:28:23;;;;;;;2.00;0.47;;;16.90;61.10;;;;;;4497288;31;20170;-71
2021/12/02 09:30:49;;;;;;;1.70;0.28;;;16.90;61.00;;;;;;4498533;31;20117;-71
2021/12/02 09:33:14;;;;;;;2.95;0.40;;;16.90;61.10;;;;;;4497204;31;20532;-71
2021/12/02 09:35:40;;;;;;;2.92;0.30;;;16.90;61.10;;;;;;4498658;31;20121;-71
2021/12/02 09:38:08;;;;;;;0.68;0.28;;;16.90;61.10;;;;;;4496728;31;20121;-71
2021/12/02 09:40:35;;;;;;;1.30;0.20;;;16.90;61.20;;;;;;4498941;31;20164;-70
2021/12/02 09:43:03;;;;;;;1.35;0.20;;;16.90;61.30;;;;;;4496869;31;20128;-71
2021/12/02 09:45:29;;;;;;;1.42;0.30;;;16.90;61.30;;;;;;4498146;31;20140;-70
2021/12/02 09:47:56;;;;;;;0.80;0.20;;;16.90;61.30;;;;;;4498141;31;20486;-70
2021/12/02 09:50:46;;;;;;;2.42;0.40;;;16.90;61.30;;;;;;4497028;31;20163;-71
2021/12/02 09:53:14;;;;;;;1.05;0.30;;;16.90;61.30;;;;;;4498683;31;20142;-71
2021/12/02 09:58:11;;;;;;;1.08;0.35;;;16.90;61.30;;;;;;4498460;31;20120;-71
2021/12/02 10:03:07;;;;;;;1.75;0.30;;;16.90;61.40;;;;;;4497228;31;20121;-71
2021/12/02 10:05:54;;;;;;;1.55;0.40;;;16.80;61.30;;;;;;4498214;31;20139;-71
2021/12/02 10:08:35;;;;;;;0.65;0.30;;;16.80;61.30;;;;;;4496215;31;20152;-71
2021/12/02 10:11:06;;;;;;;1.45;0.20;;;16.90;61.30;;;;;;4498213;31;20247;-71
2021/12/02 10:13:45;;;;;;;1.00;0.35;;;16.80;61.30;;;;;;4497466;31;20133;-70
2021/12/02 10:16:27;;;;;;;1.95;0.32;;;16.80;61.40;;;;;;4496544;31;20202;-70
2021/12/02 10:21:42;;;;;;;0.55;0.20;;;16.80;61.40;;;;;;4496268;31;20139;-71
2021/12/02 10:24:23;;;;;;;0.93;0.30;;;16.80;61.40;;;;;;4497787;31;20120;-71
2021/12/02 10:27:00;;;;;;;0.52;0.22;;;16.80;61.50;;;;;;4498115;31;20115;-71
2021/12/02 10:29:32;;;;;;;1.63;0.40;;;16.80;61.40;;;;;;4495985;31;20120;-72
2021/12/02 10:32:12;;;;;;;1.33;0.22;;;16.80;61.50;;;;;;4498294;31;20142;-71
2021/12/02 10:35:01;;;;;;;1.60;0.30;;;16.80;61.50;;;;;;4496199;31;20171;-71
2021/12/02 10:37:40;;;;;;;1.20;0.30;;;16.80;61.60;;;;;;4496409;31;20144;-71
2021/12/02 10:40:19;;;;;;;2.25;0.28;;;16.70;61.50;;;;;;4498159;31;20151;-70
2021/12/02 10:42:47;;;;;;;0.50;0.20;;;16.80;61.60;;;;;;4495692;31;20579;-71
2021/12/02 10:45:22;;;;;;;1.30;0.20;;;16.70;61.50;;;;;;4498025;31;20120;-71
2021/12/02 10:47:53;;;;;;;1.23;0.20;;;16.80;61.60;;;;;;4496526;31;20151;-70
2021/12/02 10:50:20;;;;;;;2.38;0.30;;;16.70;61.50;;;;;;4496143;31;20263;-71
2021/12/02 10:52:46;;;;;;;0.50;0.20;;;16.70;61.50;;;;;;4497330;31;20171;-71
2021/12/02 10:55:15;;;;;;;0.65;0.22;;;16.70;61.60;;;;;;4495538;31;20132;-71
2021/12/02 10:57:51;;;;;;;1.73;0.30;;;16.70;61.60;;;;;;4497560;31;20238;-70
2021/12/02 11:00:26;;;;;;;1.67;0.20;;;16.70;61.60;;;;;;4496147;31;20160;-71
2021/12/02 11:02:54;;;;;;;1.48;0.20;;;16.70;61.60;;;;;;4496629;31;20139;-70
2021/12/02 11:05:29;;;;;;;1.60;0.40;;;16.70;61.60;;;;;;4497586;31;20120;-70
2021/12/02 11:08:04;;;;;;;1.17;0.47;;;16.70;61.70;;;;;;4495042;31;20600;-71
2021/12/02 11:10:48;;;;;;;0.73;0.20;;;16.70;61.70;;;;;;4497669;31;20172;-71
2021/12/02 11:13:23;;;;;;;0.77;0.32;;;16.70;61.70;;;;;;4495755;31;20481;-69
2021/12/02 11:15:50;;;;;;;1.02;0.22;;;16.70;61.80;;;;;;4496001;31;20241;-70
2021/12/02 11:18:16;;;;;;;0.65;0.25;;;16.60;61.70;;;;;;4497057;31;20128;-71
2021/12/02 11:20:43;;;;;;;1.05;0.30;;;16.60;61.60;;;;;;4494947;31;20147;-71
2021/12/02 11:23:14;;;;;;;1.42;0.28;;;16.60;61.60;;;;;;4496881;31;20124;-66
2021/12/02 11:26:11;;;;;;;6.43;0.47;;;16.60;61.60;;;;;;4480722;31;20271;-66
2021/12/02 11:28:40;;;;;;;0.40;0.20;;;16.60;61.50;;;;;;4495966;31;20124;-65
2021/12/02 11:31:08;;;;;;;3.30;0.40;;;16.60;61.40;;;;;;4497068;31;20144;-66
2021/12/02 11:33:37;;;;;;;1.10;0.40;;;16.60;61.20;;;;;;4494995;31;20194;-67
2021/12/02 11:36:15;;;;;;;2.15;0.57;;;16.60;61.20;;;;;;4497274;31;20573;-70
2021/12/02 11:38:42;;;;;;;1.67;0.30;;;16.60;61.00;;;;;;4494749;31;20136;-69
2021/12/02 11:41:08;;;;;;;1.98;0.45;;;16.60;60.80;;;;;;4496541;31;20136;-68
2021/12/02 11:43:39;;;;;;;2.13;0.40;;;16.60;60.70;;;;;;4468949;31;20128;-70
2021/12/02 11:46:08;;;;;;;0.68;0.20;;;16.60;60.60;;;;;;4495417;31;20136;-68
2021/12/02 11:48:41;;;;;;;1.23;0.30;;;16.70;60.70;;;;;;4496778;31;20521;-71
2021/12/02 11:51:13;;;;;;;6.67;0.40;;;16.70;60.60;;;;;;4475136;31;22244;-69
2021/12/02 11:53:39;;;;;;;3.00;0.40;;;16.80;60.70;;;;;;4481867;31;20250;-67
2021/12/02 11:56:12;;;;;;;2.83;0.32;;;16.80;61.50;;;;;;4494638;31;20139;-67
2021/12/02 11:58:38;;;;;;;6.47;0.50;;;16.90;60.60;;;;;;4491780;31;20266;-67
2021/12/02 12:01:06;;;;;;;6.65;0.60;;;17.00;60.50;;;;;;4476348;32;20093;-67
2021/12/02 12:04:03;;;;;;;0.82;0.20;;;17.10;60.30;;;;;;4477132;32;20164;-68
2021/12/02 12:06:35;;;;;;;1.58;0.38;;;17.20;60.00;;;;;;4479118;32;20217;-64
2021/12/02 12:09:14;;;;;;;5.70;0.55;;;17.40;59.60;;;;;;4479396;32;20179;-64
2021/12/02 12:11:46;;;;;;;9.65;0.43;;;17.50;59.10;;;;;;4478426;32;20132;-66
2021/12/02 12:14:16;;;;;;;3.50;0.22;;;17.60;58.90;;;;;;4480965;32;20234;-65
2021/12/02 12:17:07;;;;;;;3.92;0.40;;;17.70;58.70;;;;;;4478452;32;20550;-66
2021/12/02 12:19:50;;;;;;;4.72;0.50;;;17.80;58.50;;;;;;4480624;32;20345;-65
2021/12/02 12:22:35;;;;;;;6.00;0.50;;;18.00;58.20;;;;;;4480770;32;20175;-67
2021/12/02 12:25:06;;;;;;;3.13;0.50;;;18.10;58.00;;;;;;4478447;32;20163;-70
2021/12/02 12:27:35;;;;;;;3.58;0.50;;;18.20;57.70;;;;;;4481001;32;20172;-69
2021/12/02 12:30:06;;;;;;;2.13;0.52;;;18.30;58.40;;;;;;4478666;32;20132;-68
2021/12/02 12:33:01;;;;;;;8.15;0.45;;;18.40;57.40;;;;;;4480447;32;20342;-69
2021/12/02 12:38:23;;;;;;;6.43;0.57;;;18.70;57.20;;;;;;4481775;32;20167;-66
2021/12/02 12:40:52;;;;;;;12.25;0.90;;;18.80;57.00;;;;;;4472697;31;20136;-67
2021/12/02 12:43:24;;;;;;;3.95;0.73;;;18.80;56.90;;;;;;4498013;31;20121;-67
2021/12/02 12:46:02;;;;;;;3.65;0.57;;;18.90;56.70;;;;;;4498279;31;20124;-66
2021/12/02 12:48:31;;;;;;;8.07;0.52;;;18.90;56.20;;;;;;4499666;31;20139;-67
2021/12/02 12:51:17;;;;;;;3.05;0.65;;;19.00;56.60;;;;;;4484895;31;20125;-66
2021/12/02 12:53:46;;;;;;;3.08;0.47;;;19.00;55.60;;;;;;4483242;31;20140;-67
2021/12/02 12:56:15;;;;;;;2.42;0.50;;;19.00;56.40;;;;;;4485372;31;20125;-68
2021/12/02 12:58:53;;;;;;;2.25;0.57;;;19.10;55.50;;;;;;4497582;31;20144;-68
2021/12/02 13:01:20;;;;;;;5.93;0.50;;;19.10;55.50;;;;;;4489324;31;20654;-68
2021/12/02 13:04:03;;;;;;;2.83;0.40;;;19.20;55.50;;;;;;4496255;31;20259;-69
2021/12/02 13:06:32;;;;;;;2.83;0.40;;;19.20;55.60;;;;;;4499586;31;20148;-73
2021/12/02 13:09:05;;;;;;;5.20;0.30;;;19.20;55.60;;;;;;4497922;31;20601;-70
2021/12/02 13:11:34;;;;;;;4.15;0.40;;;19.20;55.70;;;;;;4498160;31;20132;-70
2021/12/02 13:14:02;;;;;;;3.35;0.32;;;19.20;55.80;;;;;;4498957;31;20141;-67
2021/12/02 13:16:38;;;;;;;7.55;1.00;;;19.20;55.80;;;;;;4496952;31;20552;-69
2021/12/02 13:19:13;;;;;;;7.70;0.40;;;19.30;55.90;;;;;;4498963;31;20145;-67
2021/12/02 13:21:41;;;;;;;2.40;0.40;;;19.30;56.00;;;;;;4482635;31;20209;-66
2021/12/02 13:24:12;;;;;;;7.10;0.50;;;19.30;56.10;;;;;;4494869;31;20120;-67
2021/12/02 13:26:43;;;;;;;4.63;0.60;;;19.40;56.20;;;;;;4490476;31;20451;-68
2021/12/02 13:29:17;;;;;;;1.95;0.55;;;19.40;56.20;;;;;;4480051;31;20162;-67